Flight Track Log - Related Links

Times and Time Zones

All times are in EDT time to prevent confusion due to time zone crossing. See the UAL395 flight status page for this flight to view local times or setup timezone preferences in your user account.

Time Position Orientation Groundspeed Altitude Reporting Facility
EDT Latitude Longitude Course Direction KTS MPH feet Rate Location/Type
Sat 06:51:28 PM 28.4000 -81.3000 355° North 167 192 800  Level Orlando TRACON
Sat 06:52:17 PM 28.3667 -81.2833 156° South 190 219 2,100 1,765 Climbing Orlando TRACON
Sat 06:53:10 PM 28.3333 -81.2333 127° Southeast 226 260 3,800 2,250 Climbing Orlando TRACON
Sat 06:54:00 PM 28.7584 -81.3500 North  Level FlightAware Approximate
Sat 06:54:17 PM 28.3500 -81.1500 77° East 278 320 6,600  Level Orlando TRACON
Sat 06:55:00 PM 28.8754 -81.3542 355° North  Level FlightAware Approximate
Sat 06:55:23 PM 28.4333 -81.1333 10° North 292 336 9,800  Level Orlando TRACON
Sat 06:56:00 PM 28.9921 -81.3659 355° North  Level FlightAware Approximate
Sat 06:57:23 PM 28.6064 -81.2042 340° North 334 384 14,300  Level Jacksonville Center
Sat 06:58:23 PM 28.6861 -81.2361 341° North 322 371 17,400 2,200 Climbing Jacksonville Center
Sat 06:59:23 PM 28.7719 -81.2678 342° North 322 371 18,700 1,750 Climbing Jacksonville Center
Sat 07:00:23 PM 28.8622 -81.3019 342° North 327 376 20,900 1,750 Climbing Jacksonville Center
Sat 07:01:23 PM 28.9522 -81.3358 342° North 327 376 22,200 1,150 Climbing Jacksonville Center
Sat 07:02:23 PM 29.0508 -81.3725 342° North 360 414 23,200 1,000 Climbing Jacksonville Center
Sat 07:03:23 PM 29.1597 -81.3922 351° North 385 443 24,200 900 Climbing Jacksonville Center
Sat 07:04:23 PM 29.2706 -81.4072 353° North 399 459 25,000 1,150 Climbing Jacksonville Center
Sat 07:05:23 PM 29.3894 -81.4197 355° North 416 479 26,500 1,250 Climbing Jacksonville Center
Sat 07:06:23 PM 29.4919 -81.4300 355° North 416 479 27,500 1,000 Climbing Jacksonville Center
Sat 07:07:23 PM 29.6153 -81.4425 355° North 429 494 28,500 1,100 Climbing Jacksonville Center
Sat 07:08:23 PM 29.7364 -81.4550 355° North 429 494 29,700 1,100 Climbing Jacksonville Center
Sat 07:09:23 PM 29.8597 -81.4653 356° North 429 494 30,700 1,100 Climbing Jacksonville Center
Sat 07:10:23 PM 29.9811 -81.4753 356° North 434 499 31,900 1,200 Climbing Jacksonville Center
Sat 07:11:23 PM 30.1022 -81.4856 356° North 439 505 33,100 950 Climbing Jacksonville Center
Sat 07:12:23 PM 30.2297 -81.4983 355° North 446 513 33,800 900 Climbing Jacksonville Center
Sat 07:13:23 PM 30.3547 -81.4844 North 446 513 34,900 600 Climbing Jacksonville Center
Sat 07:14:23 PM 30.4756 -81.4633 North 441 507 35,000 50 Climbing Jacksonville Center
Sat 07:15:23 PM 30.6008 -81.4444 North 441 507 35,000  Level Jacksonville Center
Sat 07:16:23 PM 30.7236 -81.4256 North 446 513 35,000  Level Jacksonville Center
Sat 07:17:23 PM 30.8467 -81.4069 North 446 513 35,000  Level Jacksonville Center
Sat 07:18:23 PM 30.9864 -81.3878 North 446 513 35,000  Level Jacksonville Center
Sat 07:19:23 PM 31.1072 -81.3639 10° North 446 513 35,000  Level Jacksonville Center
Sat 07:20:23 PM 31.2300 -81.3472 North 438 504 35,000  Level Jacksonville Center
Sat 07:21:23 PM 31.3508 -81.3258 North 437 503 35,000  Level Jacksonville Center
Sat 07:22:23 PM 31.4569 -81.2875 17° North 432 497 35,000  Level Jacksonville Center
Sat 07:23:23 PM 31.5814 -81.2197 25° Northeast 444 511 35,000  Level Jacksonville Center
Sat 07:24:23 PM 31.6911 -81.1542 27° Northeast 439 505 35,000  Level Jacksonville Center
Sat 07:25:23 PM 31.7928 -81.0986 25° Northeast 439 505 35,000  Level Jacksonville Center
Sat 07:26:23 PM 31.9128 -81.0300 26° Northeast 439 505 35,000  Level Jacksonville Center
Sat 07:27:23 PM 32.0100 -80.9717 27° Northeast 439 505 35,000  Level Jacksonville Center
Sat 07:28:23 PM 32.1300 -80.9031 26° Northeast 439 505 35,000  Level Jacksonville Center
Sat 07:29:23 PM 32.2397 -80.8417 25° Northeast 433 498 35,000  Level Jacksonville Center
Sat 07:30:23 PM 32.3369 -80.7878 25° Northeast 427 491 35,000  Level Jacksonville Center
Sat 07:31:23 PM 32.4525 -80.7161 28° Northeast 417 480 35,000  Level Jacksonville Center
Sat 07:32:23 PM 32.5600 -80.6544 26° Northeast 422 486 35,000 -50 Level Jacksonville Center
Sat 07:33:23 PM 32.6675 -80.5925 26° Northeast 422 486 34,900  Descending Jacksonville Center
Sat 07:34:23 PM 32.7750 -80.5306 26° Northeast 422 486 35,000 50 Climbing Jacksonville Center
Sat 07:35:23 PM 32.8822 -80.4683 26° Northeast 422 486 35,000  Level Jacksonville Center
Sat 07:36:23 PM 32.9917 -80.4011 27° Northeast 422 486 35,000  Level Jacksonville Center
Sat 07:37:23 PM 33.0969 -80.3386 26° Northeast 422 486 35,000  Level Jacksonville Center
Sat 07:38:23 PM 33.2000 -80.2861 23° Northeast 433 498 35,000 -50 Level Jacksonville Center
Sat 07:39:23 PM 33.3053 -80.2208 27° Northeast 433 498 34,900 -50 Descending Jacksonville Center
Sat 07:40:23 PM 33.4061 -80.1581 27° Northeast 419 482 34,900  Level Jacksonville Center
Sat 07:41:23 PM 33.5092 -80.0975 26° Northeast 413 475 34,900 50 Level Jacksonville Center
Sat 07:42:23 PM 33.6142 -80.0344 27° Northeast 413 475 35,000 50 Climbing Jacksonville Center
Sat 07:43:23 PM 33.7192 -79.9686 28° Northeast 413 475 35,000  Level Jacksonville Center
Sat 07:44:23 PM 33.8242 -79.9078 26° Northeast 413 475 35,000  Level Jacksonville Center
Sat 07:45:23 PM 33.9269 -79.8442 27° Northeast 413 475 35,000  Level Jacksonville Center
Sat 07:46:23 PM 34.0317 -79.7828 26° Northeast 413 475 35,000  Level Jacksonville Center
Sat 07:48:26 PM 34.2492 -79.6494 27° Northeast 411 473 35,000  Level Washington Center
Sat 07:49:24 PM 34.3553 -79.5917 24° Northeast 411 473 35,000  Level Washington Center
Sat 07:50:26 PM 34.4656 -79.5367 22° Northeast 411 473 35,000  Level Washington Center
Sat 07:51:24 PM 34.5739 -79.4764 25° Northeast 411 473 35,000  Level Washington Center
Sat 07:52:25 PM 34.6800 -79.4208 23° Northeast 411 473 35,000  Level Washington Center
Sat 07:53:26 PM 34.7906 -79.3628 23° Northeast 417 480 35,000  Level Washington Center
Sat 07:54:24 PM 34.9008 -79.3019 24° Northeast 422 486 35,000  Level Washington Center
Sat 07:55:25 PM 35.0092 -79.2436 24° Northeast 422 486 35,000  Level Washington Center
Sat 07:56:25 PM 35.1194 -79.1825 24° Northeast 422 486 35,000 -347 Level Washington Center
Sat 07:57:26 PM 35.2275 -79.1264 23° Northeast 422 486 34,300 -850 Descending Washington Center
Sat 07:58:25 PM 35.3378 -79.0650 24° Northeast 422 486 33,300 -915 Descending Washington Center
Sat 07:59:24 PM 35.4375 -79.0106 24° Northeast 422 486 32,500 -650 Descending Washington Center
Sat 08:00:25 PM 35.5539 -78.9492 23° Northeast 428 493 32,000 -246 Descending Washington Center
Sat 08:01:26 PM 35.6683 -78.8875 24° Northeast 433 498 32,000  Level Washington Center
Sat 08:02:26 PM 35.7828 -78.8233 24° Northeast 446 513 32,000 -102 Level Washington Center
Sat 08:03:24 PM 35.8992 -78.7586 24° Northeast 446 513 31,800 -610 Descending Washington Center
Sat 08:04:24 PM 36.0094 -78.6964 25° Northeast 441 507 30,800 -1,240 Descending Washington Center
Sat 08:05:25 PM 36.1239 -78.6314 25° Northeast 446 513 29,300 -1,537 Descending Washington Center
Sat 08:06:25 PM 36.2381 -78.5689 24° Northeast 446 513 27,700 -1,140 Descending Washington Center
Sat 08:07:26 PM 36.3522 -78.5064 24° Northeast 446 513 27,000 -347 Descending Washington Center
Sat 08:08:26 PM 36.4664 -78.4381 26° Northeast 446 513 27,000  Level Washington Center
Sat 08:09:24 PM 36.5806 -78.3750 24° Northeast 446 513 27,000  Level Washington Center
Sat 08:10:24 PM 36.7053 -78.3044 24° Northeast 446 513 27,000  Level Washington Center
Sat 08:11:24 PM 36.8175 -78.2383 25° Northeast 446 513 27,000  Level Washington Center
Sat 08:12:24 PM 36.9317 -78.1719 25° Northeast 446 513 27,000  Level Washington Center
Sat 08:13:25 PM 37.0456 -78.1108 23° Northeast 446 513 27,000  Level Washington Center
Sat 08:14:26 PM 37.1575 -78.0442 25° Northeast 446 513 27,000 -151 Level Washington Center
Sat 08:15:24 PM 37.2714 -77.9800 24° Northeast 446 513 26,700 -605 Descending Washington Center
Sat 08:16:25 PM 37.3833 -77.9103 26° Northeast 446 513 25,800 -1,100 Descending Washington Center
Sat 08:17:24 PM 37.4972 -77.8483 23° Northeast 441 507 24,500 -1,884 Descending Washington Center
Sat 08:18:26 PM 37.6069 -77.7833 25° Northeast 441 507 22,000 -2,361 Descending Washington Center
Sat 08:19:26 PM 37.7100 -77.7233 25° Northeast 425 489 19,700 -2,441 Descending Washington Center
Sat 08:20:24 PM 37.8069 -77.6656 25° Northeast 399 459 17,200 -2,370 Descending Washington Center
Sat 08:21:25 PM 37.9078 -77.6314 15° North 381 438 15,000 -2,164 Descending Washington Center
Sat 08:22:26 PM 38.0042 -77.6078 11° North 362 417 12,800 -1,983 Descending Washington Center
Sat 08:23:26 PM 38.1003 -77.5919 North 355 409 11,000 -1,311 Descending Washington Center
Sat 08:24:25 PM 38.1944 -77.5706 10° North 350 403 10,200 -1,059 Descending Washington Center
Sat 08:25:25 PM 38.2719 -77.5489 12° North 317 365 8,900 -1,388 Descending Washington Center
Sat 08:26:26 PM 38.3472 -77.5322 10° North 289 333 7,400 -1,438 Descending Washington Center
Sat 08:27:26 PM 38.4228 -77.5131 11° North 277 319 6,000 -876 Descending Washington Center
Sat 08:29:24 PM 38.5833 -77.4667 13° North 270 311 4,800 -876 Descending Potomac TRACON
Sat 08:30:24 PM 38.6500 -77.4500 11° North 255 293 3,400 -900 Descending Potomac TRACON
Sat 08:31:24 PM 38.7167 -77.4333 11° North 228 262 3,000 -198 Descending Potomac TRACON
Sat 08:32:25 PM 38.7833 -77.4333 360° North 228 262 3,000 -496 Level Potomac TRACON
Sat 08:33:25 PM 38.8333 -77.4333 360° North 191 220 2,000 -850 Descending Potomac TRACON
Sat 08:34:25 PM 38.8667 -77.4333 360° North 146 168 1,300 -700 Descending Potomac TRACON
Sat 08:35:25 PM 38.9167 -77.4333 360° North 137 158 600 -700 Descending Potomac TRACON

Login

Don't have an account? Register now (free) for customized features, flight alerts, and more!